Purdys Mills, New York
Current Conditions -  °F | °C
As of 10:53 PM on Tuesday 21 Oct 2014 (Local Time) from KPBG Reporting Station
Overcast Overcast  
Wind Chill: 39°   Ceiling: 800
Heat Index: 45°   Visibility: 10mi
Dew Point: 43°   Wind: 13mph
Humidity: 93%   Direction: 350°N
Pressure: 30.11"   Gusts: NA
Location:  44.8543°N, 73.663°W
Report Text: KPBG 220253Z AUTO 35011KT 10SM OVC008 07/06 A3011 RMK AO2 SLP197 T00720061 51015
Loading
Personal Weather Stations






























Interactive Weather Map
Tropical Storm Tracking
New forecast layout! Learn more

10-Day Weather Forecast

Advertisements
Track Severe Weather on mobile